createdAt,value
2023-04-28T00:00:48.537Z,97901.03
2023-04-28T00:05:50.470Z,97903.72
2023-04-28T00:10:52.399Z,97894.81
2023-04-28T00:15:54.681Z,97892.75
2023-04-28T00:20:56.889Z,97887.47
2023-04-28T00:25:58.810Z,97870.63
2023-04-28T00:31:00.869Z,97875.84
2023-04-28T00:36:02.753Z,97872.53
2023-04-28T00:41:06.028Z,97863.38
2023-04-28T00:46:07.998Z,97854.06
2023-04-28T00:51:09.925Z,97840.81
2023-04-28T00:56:12.398Z,97836.06
2023-04-28T01:01:14.526Z,97832.66
2023-04-28T01:06:17.448Z,97826.31
2023-04-28T01:11:19.630Z,97819.13
2023-04-28T01:16:39.659Z,97822.53
2023-04-28T01:21:41.924Z,97811.56
2023-04-28T01:26:55.947Z,97816.31
2023-04-28T01:31:57.963Z,97813.88
2023-04-28T01:36:59.870Z,97810.75
2023-04-28T01:42:02.596Z,97800.88
2023-04-28T01:47:04.694Z,97799.78
2023-04-28T01:52:09.845Z,97794.75
2023-04-28T01:57:11.798Z,97793.78
2023-04-28T02:02:14.055Z,97791.72
2023-04-28T02:07:16.061Z,97785.09
2023-04-28T02:12:17.967Z,97785.91
2023-04-28T02:17:19.873Z,97784.66
2023-04-28T02:22:21.862Z,97772.66
2023-04-28T02:27:23.738Z,97764.97
2023-04-28T02:32:25.622Z,97763.72
2023-04-28T02:37:27.628Z,97759.69
2023-04-28T02:42:29.600Z,97749.09
2023-04-28T02:47:31.628Z,97751.78
2023-04-28T02:52:33.581Z,97752.31
2023-04-28T02:57:35.614Z,97747.31
2023-04-28T03:02:38.729Z,97746.59
2023-04-28T03:07:40.840Z,97758.94
2023-04-28T03:12:42.660Z,97751.59
2023-04-28T03:17:44.645Z,97746.56
2023-04-28T03:22:46.546Z,97735.28
2023-04-28T03:27:48.404Z,97731.53
2023-04-28T03:32:50.603Z,97724.94
2023-04-28T03:37:52.551Z,97722.47
2023-04-28T03:42:54.532Z,97727.91
2023-04-28T03:48:02.495Z,97717.41
2023-04-28T03:53:05.190Z,97720.91
2023-04-28T03:58:08.297Z,97700.94
2023-04-28T04:03:10.580Z,97691.34
2023-04-28T04:08:12.832Z,97689.41
2023-04-28T04:13:14.697Z,97685.75
2023-04-28T04:18:19.190Z,97680.16
2023-04-28T04:23:47.358Z,97672.97
2023-04-28T04:28:49.556Z,97666.66
2023-04-28T04:33:51.846Z,97670.75
2023-04-28T04:38:55.725Z,97667.78
2023-04-28T04:43:57.926Z,97672.38
2023-04-28T04:49:05.028Z,97665.91
2023-04-28T04:54:07.222Z,97658.38
2023-04-28T04:59:11.995Z,97655.78
2023-04-28T05:04:25.359Z,97648.66
2023-04-28T05:09:27.602Z,97646.50
2023-04-28T05:14:29.490Z,97645.41
2023-04-28T05:19:31.611Z,97640.81
2023-04-28T05:24:33.727Z,97648.28
2023-04-28T05:29:37.393Z,97649.44
2023-04-28T05:34:39.350Z,97639.13
2023-04-28T05:39:41.266Z,97641.56
2023-04-28T05:44:43.324Z,97646.06
2023-04-28T05:49:45.701Z,97639.88
2023-04-28T05:54:47.591Z,97642.38
2023-04-28T05:59:49.563Z,97635.13
2023-04-28T06:04:51.644Z,97625.78
2023-04-28T06:09:54.114Z,97622.63
2023-04-28T06:14:56.114Z,97619.19
2023-04-28T06:20:00.763Z,97631.13
2023-04-28T06:25:02.807Z,97620.84
2023-04-28T06:30:10.409Z,97615.66
2023-04-28T06:35:12.558Z,97610.84
2023-04-28T06:40:14.626Z,97607.41
2023-04-28T06:45:22.435Z,97611.56
2023-04-28T06:50:24.650Z,97607.63
2023-04-28T06:55:26.943Z,97619.19
2023-04-28T07:00:28.922Z,97608.06
2023-04-28T07:05:30.890Z,97611.97
2023-04-28T07:10:32.727Z,97603.78
2023-04-28T07:15:35.116Z,97595.09
2023-04-28T07:20:37.283Z,97595.69
2023-04-28T07:25:40.881Z,97585.00
2023-04-28T07:30:42.803Z,97586.75
2023-04-28T07:35:44.787Z,97584.53
2023-04-28T07:40:47.131Z,97583.44
2023-04-28T07:45:49.741Z,97582.91
2023-04-28T07:50:51.770Z,97590.38
2023-04-28T07:55:55.130Z,97598.06
2023-04-28T08:00:57.187Z,97585.31
2023-04-28T08:05:59.572Z,97593.63
2023-04-28T08:11:02.015Z,97594.16
2023-04-28T08:16:04.013Z,97593.00
2023-04-28T08:21:06.047Z,97590.41
2023-04-28T08:26:07.967Z,97587.44
2023-04-28T08:31:09.833Z,97588.66
2023-04-28T08:36:15.205Z,97577.88
2023-04-28T08:41:17.265Z,97588.09
2023-04-28T08:46:21.877Z,97590.53
2023-04-28T08:51:33.952Z,97599.94
2023-04-28T08:56:36.157Z,97597.66
2023-04-28T09:01:38.258Z,97589.28
2023-04-28T09:06:40.700Z,97592.44
2023-04-28T09:12:04.166Z,97601.59
2023-04-28T09:17:13.798Z,97602.28
2023-04-28T09:22:26.415Z,97607.34
2023-04-28T09:27:29.593Z,97604.19
2023-04-28T09:32:31.849Z,97595.94
2023-04-28T09:37:35.833Z,97598.75
2023-04-28T09:42:39.519Z,97595.09
2023-04-28T09:47:43.158Z,97598.69
2023-04-28T09:52:57.004Z,97597.41
2023-04-28T09:58:06.164Z,97599.38
2023-04-28T10:03:09.833Z,97607.38
2023-04-28T10:08:13.423Z,97601.13
2023-04-28T10:13:19.734Z,97598.69
2023-04-28T10:18:23.771Z,97605.50
2023-04-28T10:23:44.770Z,97605.69
2023-04-28T10:28:52.151Z,97605.84
2023-04-28T10:33:54.712Z,97599.34
2023-04-28T10:39:11.178Z,97591.66
2023-04-28T10:44:28.404Z,97590.78
2023-04-28T10:49:55.211Z,97582.78
2023-04-28T10:55:32.988Z,97576.22
2023-04-28T11:00:34.949Z,97568.72
2023-04-28T11:05:36.828Z,97550.53
2023-04-28T11:11:16.928Z,97546.69
2023-04-28T11:16:22.150Z,97543.06
2023-04-28T11:21:25.998Z,97547.31
2023-04-28T11:26:28.359Z,97535.53
2023-04-28T11:31:30.208Z,97545.72
2023-04-28T11:36:37.098Z,97544.25
2023-04-28T11:41:48.798Z,97534.16
2023-04-28T11:47:03.170Z,97535.72
2023-04-28T11:52:07.216Z,97534.47
2023-04-28T11:57:18.448Z,97530.50
2023-04-28T12:02:30.980Z,97525.28
2023-04-28T12:07:42.664Z,97514.47
2023-04-28T12:12:52.052Z,97524.31
2023-04-28T12:17:55.123Z,97518.09
2023-04-28T12:22:57.037Z,97509.81
2023-04-28T12:28:03.839Z,97500.78
2023-04-28T12:33:05.989Z,97495.34
2023-04-28T12:38:11.846Z,97483.94
2023-04-28T12:43:13.663Z,97478.28
2023-04-28T12:48:15.571Z,97471.22
2023-04-28T12:53:19.632Z,97475.69
2023-04-28T12:58:21.470Z,97470.13
2023-04-28T13:03:23.466Z,97474.03
2023-04-28T13:08:25.358Z,97475.25
2023-04-28T13:13:27.211Z,97472.81
2023-04-28T13:18:30.194Z,97470.28
2023-04-28T13:23:32.056Z,97468.84
2023-04-28T13:28:34.210Z,97463.84
2023-04-28T13:33:36.103Z,97461.47
2023-04-28T13:38:37.974Z,97451.03
2023-04-28T13:43:39.877Z,97442.63
2023-04-28T13:48:41.996Z,97439.28
2023-04-28T13:53:43.831Z,97436.03
2023-04-28T13:58:45.710Z,97421.28
2023-04-28T14:03:47.690Z,97420.28
2023-04-28T14:08:49.591Z,97418.47
2023-04-28T14:13:51.432Z,97415.22
2023-04-28T14:18:53.244Z,97410.34
2023-04-28T14:23:55.129Z,97414.66
2023-04-28T14:28:57.089Z,97404.72
2023-04-28T14:33:59.199Z,97404.91
2023-04-28T14:39:01.468Z,97393.25
2023-04-28T14:44:03.406Z,97389.34
2023-04-28T14:49:06.102Z,97383.59
2023-04-28T14:54:09.707Z,97378.63
2023-04-28T14:59:11.676Z,97363.75
2023-04-28T15:04:13.667Z,97356.53
2023-04-28T15:09:15.835Z,97364.38
2023-04-28T15:14:18.431Z,97358.31
2023-04-28T15:19:20.447Z,97359.94
2023-04-28T15:24:22.323Z,97360.56
2023-04-28T15:29:24.131Z,97357.34
2023-04-28T15:34:26.011Z,97350.31
2023-04-28T15:39:28.601Z,97345.88
2023-04-28T15:44:30.992Z,97339.47
2023-04-28T15:49:32.862Z,97336.44
2023-04-28T15:54:34.710Z,97336.44
2023-04-28T15:59:36.604Z,97339.06
2023-04-28T16:04:38.999Z,97329.84
2023-04-28T16:09:41.203Z,97332.22
2023-04-28T16:19:44.917Z,97335.00
2023-04-28T16:24:47.482Z,97333.44
2023-04-28T16:29:50.020Z,97334.59
2023-04-28T16:34:52.458Z,97333.34
2023-04-28T16:39:54.681Z,97343.13
2023-04-28T16:44:56.646Z,97333.50
2023-04-28T16:49:58.477Z,97335.69
2023-04-28T16:55:00.567Z,97337.84
2023-04-28T17:00:02.516Z,97328.41
2023-04-28T17:05:07.011Z,97321.78
2023-04-28T17:10:09.400Z,97336.41
2023-04-28T17:15:15.265Z,97324.91
2023-04-28T17:20:18.219Z,97317.59
2023-04-28T17:25:23.430Z,97321.97
2023-04-28T17:30:26.071Z,97326.53
2023-04-28T17:35:28.043Z,97332.53
2023-04-28T17:40:29.867Z,97313.50
2023-04-28T17:45:34.708Z,97318.28
2023-04-28T17:50:36.686Z,97316.47
2023-04-28T17:55:38.546Z,97319.72
2023-04-28T18:00:40.677Z,97315.84
2023-04-28T18:05:42.691Z,97329.44
2023-04-28T18:10:44.516Z,97330.00
2023-04-28T18:15:46.403Z,97320.19
2023-04-28T18:20:48.245Z,97320.94
2023-04-28T18:25:50.074Z,97325.81
2023-04-28T18:30:51.815Z,97324.66
2023-04-28T18:36:01.622Z,97327.75
2023-04-28T18:41:16.648Z,97326.03
2023-04-28T18:46:18.676Z,97334.19
2023-04-28T18:51:20.934Z,97334.31
2023-04-28T18:56:23.794Z,97337.28
2023-04-28T19:01:27.375Z,97339.09
2023-04-28T19:06:29.780Z,97329.44
2023-04-28T19:11:32.067Z,97335.25
2023-04-28T19:16:36.768Z,97333.00
2023-04-28T19:21:41.911Z,97322.56
2023-04-28T19:26:43.744Z,97329.56
2023-04-28T19:31:45.838Z,97331.19
2023-04-28T19:36:47.682Z,97326.78
2023-04-28T19:41:50.692Z,97334.22
2023-04-28T19:46:52.562Z,97317.25
2023-04-28T19:51:54.484Z,97322.16
2023-04-28T19:56:56.545Z,97312.53
2023-04-28T20:01:58.792Z,97312.38
2023-04-28T20:07:00.734Z,97310.22
2023-04-28T20:12:07.897Z,97315.13
2023-04-28T20:17:09.840Z,97315.25
2023-04-28T20:22:11.648Z,97316.31
2023-04-28T20:27:13.777Z,97318.44
2023-04-28T20:32:15.621Z,97315.09
2023-04-28T20:37:19.948Z,97311.28
2023-04-28T20:42:22.112Z,97302.75
2023-04-28T20:47:24.060Z,97296.88
2023-04-28T20:52:26.022Z,97298.59
2023-04-28T20:57:27.835Z,97284.59
2023-04-28T21:02:29.791Z,97281.56
2023-04-28T21:07:33.671Z,97292.56
2023-04-28T21:12:36.180Z,97289.69
2023-04-28T21:17:38.034Z,97303.31
2023-04-28T21:22:39.825Z,97294.38
2023-04-28T21:27:41.692Z,97289.00
2023-04-28T21:32:43.537Z,97290.34
2023-04-28T21:37:45.574Z,97284.53
2023-04-28T21:42:47.405Z,97293.47
2023-04-28T21:47:49.260Z,97291.84
2023-04-28T21:52:51.598Z,97297.13
2023-04-28T21:57:54.187Z,97291.41
2023-04-28T22:02:57.894Z,97285.22
2023-04-28T22:08:01.575Z,97286.84
2023-04-28T22:13:04.072Z,97284.59
2023-04-28T22:18:07.834Z,97272.44
2023-04-28T22:23:09.692Z,97272.00
2023-04-28T22:28:11.546Z,97281.97
2023-04-28T22:33:13.411Z,97280.91
2023-04-28T22:38:15.352Z,97268.75
2023-04-28T22:43:17.465Z,97273.22
2023-04-28T22:48:19.400Z,97265.91
2023-04-28T22:53:21.301Z,97263.00
2023-04-28T22:58:23.160Z,97264.25
2023-04-28T23:03:25.118Z,97261.03
2023-04-28T23:08:27.038Z,97249.88
2023-04-28T23:13:28.908Z,97258.94
2023-04-28T23:18:32.982Z,97251.94
2023-04-28T23:23:34.851Z,97254.19
2023-04-28T23:28:36.618Z,97247.22
2023-04-28T23:33:38.441Z,97246.47
2023-04-28T23:38:40.343Z,97246.53
2023-04-28T23:43:42.211Z,97254.13
2023-04-28T23:48:44.075Z,97257.91
2023-04-28T23:53:45.930Z,97263.97
2023-04-28T23:58:47.750Z,97254.75
